Time;durP1;ratioP1;P1;durP2;ratioP2;P2;SDS_P1;SDS_P2;PMS_P1;PMS_P2;Temp;Humidity;BMP_temperature;BMP_pressure;BME280_temperature;BME280_humidity;BME280_pressure;Samples;Min_cycle;Max_cycle;Signal;HPM_P1;HPM_P2
2021/06/04 00:03:11;;;;;;;;;;;16.80;99.90;;;;;;10528549;28;19946;-59
2021/06/04 00:08:13;;;;;;;;;;;16.60;99.90;;;;;;10520840;28;20041;-59
2021/06/04 00:13:33;;;;;;;;;;;16.50;99.90;;;;;;10501585;28;19971;-59
2021/06/04 00:18:36;;;;;;;;;;;16.60;99.90;;;;;;10528289;28;20346;-59
2021/06/04 00:23:38;;;;;;;;;;;16.60;99.90;;;;;;10523833;28;19928;-59
2021/06/04 00:28:39;;;;;;;;;;;16.60;99.90;;;;;;10517597;28;19931;-59
2021/06/04 00:33:42;;;;;;;;;;;16.70;99.90;;;;;;10490477;28;20287;-58
2021/06/04 00:38:44;;;;;;;;;;;16.70;99.90;;;;;;10518230;28;19927;-59
2021/06/04 00:43:47;;;;;;;;;;;16.60;99.90;;;;;;10502884;28;20369;-59
2021/06/04 00:48:49;;;;;;;;;;;16.50;99.90;;;;;;10494608;28;20023;-59
2021/06/04 00:53:51;;;;;;;;;;;16.50;99.90;;;;;;10527367;28;20027;-59
2021/06/04 00:58:53;;;;;;;;;;;16.50;99.90;;;;;;10491955;28;19974;-60
2021/06/04 01:03:57;;;;;;;;;;;16.50;99.90;;;;;;10503120;28;19928;-59
2021/06/04 01:09:08;;;;;;;;;;;16.50;99.90;;;;;;10527108;28;19931;-59
2021/06/04 01:14:17;;;;;;;;;;;16.60;99.90;;;;;;10490424;28;20011;-59
2021/06/04 01:19:29;;;;;;;;;;;16.60;99.90;;;;;;10527514;28;20350;-59
2021/06/04 01:24:31;;;;;;;;;;;16.50;99.90;;;;;;10525205;28;19930;-60
2021/06/04 01:29:55;;;;;;;;;;;16.50;99.90;;;;;;10488193;28;20015;-59
2021/06/04 01:35:00;;;;;;;;;;;16.60;99.90;;;;;;10488640;28;20012;-59
2021/06/04 01:40:12;;;;;;;;;;;16.70;99.90;;;;;;10488929;28;20007;-59
2021/06/04 01:45:22;;;;;;;;;;;16.60;99.90;;;;;;10498039;28;19969;-59
2021/06/04 01:50:26;;;;;;;;;;;16.60;99.90;;;;;;10512600;28;19971;-59
2021/06/04 01:55:31;;;;;;;;;;;16.60;99.90;;;;;;10517864;28;20338;-59
2021/06/04 02:00:35;;;;;;;;;;;16.60;99.90;;;;;;10516132;28;19925;-60
2021/06/04 02:05:38;;;;;;;;;;;16.60;99.90;;;;;;10529488;28;20024;-60
2021/06/04 02:10:43;;;;;;;;;;;16.60;99.90;;;;;;10522702;28;20364;-59
2021/06/04 02:15:46;;;;;;;;;;;16.50;99.90;;;;;;10512880;28;20003;-60
2021/06/04 02:20:55;;;;;;;;;;;16.50;99.90;;;;;;10542105;28;19925;-59
2021/06/04 02:25:56;;;;;;;;;;;16.50;99.90;;;;;;10542135;28;19931;-60
2021/06/04 02:31:17;;;;;;;;;;;16.50;99.90;;;;;;10537452;28;20439;-59
2021/06/04 02:36:21;;;;;;;;;;;16.30;99.90;;;;;;10540242;28;19924;-59
2021/06/04 02:41:28;;;;;;;;;;;16.30;99.90;;;;;;10521618;28;19975;-59
2021/06/04 02:46:32;;;;;;;;;;;16.50;99.90;;;;;;10523009;28;20015;-60
2021/06/04 02:51:33;;;;;;;;;;;16.60;99.90;;;;;;10520751;28;19931;-59
2021/06/04 02:56:37;;;;;;;;;;;16.60;99.90;;;;;;10501369;28;19924;-59
2021/06/04 03:01:41;;;;;;;;;;;16.60;99.90;;;;;;10517357;28;20027;-59
2021/06/04 03:06:47;;;;;;;;;;;16.70;99.90;;;;;;10511730;28;20406;-59
2021/06/04 03:11:50;;;;;;;;;;;16.60;99.90;;;;;;10495672;28;20023;-59
2021/06/04 03:16:53;;;;;;;;;;;16.30;99.90;;;;;;10514653;28;20429;-59
2021/06/04 03:22:05;;;;;;;;;;;16.40;99.90;;;;;;10512813;28;20810;-59
2021/06/04 03:27:08;;;;;;;;;;;16.50;99.90;;;;;;10514288;28;20019;-59
2021/06/04 03:32:11;;;;;;;;;;;16.40;99.90;;;;;;10512760;28;20045;-59
2021/06/04 03:37:13;;;;;;;;;;;16.40;99.90;;;;;;10513448;28;20300;-59
2021/06/04 03:42:25;;;;;;;;;;;16.50;99.90;;;;;;10512771;28;20014;-59
2021/06/04 03:47:26;;;;;;;;;;;16.60;99.90;;;;;;10513879;28;20044;-59
2021/06/04 03:52:28;;;;;;;;;;;16.70;99.90;;;;;;10533423;28;19924;-59
2021/06/04 03:57:31;;;;;;;;;;;16.60;99.90;;;;;;10531715;28;19931;-59
2021/06/04 04:02:33;;;;;;;;;;;16.60;99.90;;;;;;10520598;28;20460;-59
2021/06/04 04:07:38;;;;;;;;;;;16.60;99.90;;;;;;10492150;28;19974;-59
2021/06/04 04:12:40;;;;;;;;;;;16.60;99.90;;;;;;10510995;28;19935;-60
2021/06/04 04:17:41;;;;;;;;;;;16.50;99.90;;;;;;10510208;28;20035;-59
2021/06/04 04:22:44;;;;;;;;;;;16.60;99.90;;;;;;10511863;28;20023;-59
2021/06/04 04:27:45;;;;;;;;;;;16.50;99.90;;;;;;10510649;28;20065;-59
2021/06/04 04:32:48;;;;;;;;;;;16.50;99.90;;;;;;10526268;28;19974;-59
2021/06/04 04:37:50;;;;;;;;;;;16.60;99.90;;;;;;10526531;28;20434;-59
2021/06/04 04:42:51;;;;;;;;;;;16.70;99.90;;;;;;10529414;28;20424;-59
2021/06/04 04:47:54;;;;;;;;;;;16.80;99.90;;;;;;10494892;28;20376;-59
2021/06/04 04:52:57;;;;;;;;;;;16.80;99.90;;;;;;10524538;28;19924;-58
2021/06/04 04:57:59;;;;;;;;;;;16.90;99.90;;;;;;10521990;28;20018;-59
2021/06/04 05:03:02;;;;;;;;;;;17.00;99.90;;;;;;10508209;28;19939;-59
2021/06/04 05:08:04;;;;;;;;;;;17.00;99.90;;;;;;10511833;28;20291;-59
2021/06/04 05:13:07;;;;;;;;;;;17.00;99.90;;;;;;10527011;28;20031;-59
2021/06/04 05:18:11;;;;;;;;;;;17.10;99.90;;;;;;10529451;28;20182;-59
2021/06/04 05:23:15;;;;;;;;;;;17.10;99.90;;;;;;10494889;28;19994;-60
2021/06/04 05:28:22;;;;;;;;;;;17.20;99.90;;;;;;10521132;28;20283;-59
2021/06/04 05:33:26;;;;;;;;;;;17.40;99.90;;;;;;10496900;28;19938;-59
2021/06/04 05:38:28;;;;;;;;;;;17.30;99.90;;;;;;10527403;28;19924;-59
2021/06/04 05:43:39;;;;;;;;;;;17.20;99.90;;;;;;10511910;28;20463;-60
2021/06/04 05:48:41;;;;;;;;;;;17.30;99.90;;;;;;10494261;28;20018;-59
2021/06/04 05:53:43;;;;;;;;;;;17.50;99.90;;;;;;10520437;28;19930;-59
2021/06/04 05:58:45;;;;;;;;;;;17.40;99.90;;;;;;10495553;28;20002;-59
2021/06/04 06:03:47;;;;;;;;;;;17.50;99.90;;;;;;10499450;28;19999;-59
2021/06/04 06:08:49;;;;;;;;;;;17.40;99.90;;;;;;10488176;28;19971;-59
2021/06/04 06:13:51;;;;;;;;;;;17.30;99.90;;;;;;10527389;28;20355;-59
2021/06/04 06:18:53;;;;;;;;;;;17.20;99.90;;;;;;10487609;28;19925;-60
2021/06/04 06:23:55;;;;;;;;;;;17.80;99.90;;;;;;10526957;28;20019;-59
2021/06/04 06:28:59;;;;;;;;;;;18.80;99.90;;;;;;10498084;28;19938;-60
2021/06/04 06:34:01;;;;;;;;;;;19.20;99.90;;;;;;10518665;28;19935;-59
2021/06/04 06:39:15;;;;;;;;;;;19.00;99.90;;;;;;10487297;28;20439;-60
2021/06/04 06:44:18;;;;;;;;;;;18.60;99.90;;;;;;10485643;28;20019;-59
2021/06/04 06:49:21;;;;;;;;;;;18.60;99.90;;;;;;10511150;28;19932;-59
2021/06/04 06:54:25;;;;;;;;;;;18.70;99.90;;;;;;10497666;28;19971;-59
2021/06/04 06:59:29;;;;;;;;;;;18.60;99.90;;;;;;10526843;28;20015;-60
2021/06/04 07:04:32;;;;;;;;;;;18.70;99.90;;;;;;10505178;28;20023;-59
2021/06/04 07:09:33;;;;;;;;;;;19.00;99.90;;;;;;10514703;28;19979;-59
2021/06/04 07:14:35;;;;;;;;;;;19.20;99.90;;;;;;10513987;28;20475;-60
2021/06/04 07:19:37;;;;;;;;;;;19.40;99.90;;;;;;10510383;28;20027;-59
2021/06/04 07:24:39;;;;;;;;;;;19.40;99.90;;;;;;10531397;28;19959;-59
2021/06/04 07:29:42;;;;;;;;;;;19.40;99.90;;;;;;10515922;28;20439;-59
2021/06/04 07:34:44;;;;;;;;;;;19.40;99.90;;;;;;10519747;28;20348;-60
2021/06/04 07:39:46;;;;;;;;;;;19.20;99.90;;;;;;10520285;28;19925;-59
2021/06/04 07:44:48;;;;;;;;;;;19.20;99.90;;;;;;10527482;28;19978;-59
2021/06/04 07:49:50;;;;;;;;;;;19.70;99.90;;;;;;10501796;28;20023;-59
2021/06/04 07:54:52;;;;;;;;;;;20.50;99.90;;;;;;10493471;28;19928;-59
2021/06/04 07:59:54;;;;;;;;;;;21.00;99.90;;;;;;10524717;28;19931;-59
2021/06/04 08:04:55;;;;;;;;;;;21.70;99.90;;;;;;10507329;28;20396;-66
2021/06/04 08:09:57;;;;;;;;;;;23.00;99.90;;;;;;10498266;28;19931;-67
2021/06/04 08:15:01;;;;;;;;;;;23.10;99.90;;;;;;10525546;28;19930;-67
2021/06/04 08:20:05;;;;;;;;;;;23.00;99.90;;;;;;10522912;28;20349;-67
2021/06/04 08:25:12;;;;;;;;;;;23.40;99.90;;;;;;10522123;28;19925;-69
2021/06/04 08:30:14;;;;;;;;;;;24.10;99.90;;;;;;10495013;28;20027;-66
2021/06/04 08:35:16;;;;;;;;;;;24.70;99.90;;;;;;10489491;28;19964;-67
2021/06/04 08:40:22;;;;;;;;;;;24.60;99.90;;;;;;10490851;28;20380;-66
2021/06/04 08:45:36;;;;;;;;;;;24.70;99.90;;;;;;10497646;28;20132;-67
2021/06/04 08:50:44;;;;;;;;;;;24.90;99.90;;;;;;10521549;28;19928;-66
2021/06/04 08:55:49;;;;;;;;;;;25.30;99.90;;;;;;10522938;28;20443;-67
2021/06/04 09:00:54;;;;;;;;;;;25.40;99.90;;;;;;10503296;28;20443;-67
2021/06/04 09:06:00;;;;;;;;;;;25.60;99.90;;;;;;10502675;28;19928;-66
2021/06/04 09:11:05;;;;;;;;;;;26.10;99.90;;;;;;10529287;28;20431;-66
2021/06/04 09:16:20;;;;;;;;;;;26.40;99.90;;;;;;10494207;28;19948;-66
2021/06/04 09:21:27;;;;;;;;;;;26.30;99.90;;;;;;10525561;28;20338;-66
2021/06/04 09:26:30;;;;;;;;;;;26.50;99.90;;;;;;10526195;28;20355;-66
2021/06/04 09:31:42;;;;;;;;;;;26.80;99.90;;;;;;10514505;28;19967;-66
2021/06/04 09:36:52;;;;;;;;;;;26.60;99.90;;;;;;10530560;28;19924;-67
2021/06/04 09:42:13;;;;;;;;;;;26.30;99.90;;;;;;10528402;28;20019;-67
2021/06/04 09:47:22;;;;;;;;;;;26.70;99.90;;;;;;10529682;28;20015;-67
2021/06/04 09:52:32;;;;;;;;;;;26.50;99.90;;;;;;10529281;28;20006;-67
2021/06/04 09:57:35;;;;;;;;;;;26.10;99.90;;;;;;10526133;28;19924;-67
2021/06/04 10:02:38;;;;;;;;;;;26.20;99.90;;;;;;10518733;28;20011;-67
2021/06/04 10:07:40;;;;;;;;;;;26.70;99.90;;;;;;10487735;28;20387;-67
2021/06/04 10:12:44;;;;;;;;;;;26.80;99.90;;;;;;10487460;28;19960;-67
2021/06/04 10:23:12;;;;;;;;;;;26.80;98.10;;;;;;10487484;28;19964;-67
2021/06/04 10:28:35;;;;;;;;;;;26.80;98.40;;;;;;10510205;28;19924;-67
2021/06/04 10:33:49;;;;;;;;;;;26.70;99.90;;;;;;10530619;28;19924;-67
2021/06/04 10:38:53;;;;;;;;;;;26.40;99.30;;;;;;10536352;28;20294;-67
2021/06/04 10:43:55;;;;;;;;;;;25.80;99.90;;;;;;10537373;28;19923;-67
2021/06/04 10:49:09;;;;;;;;;;;25.90;99.90;;;;;;10536796;28;20007;-67
2021/06/04 10:54:44;;;;;;;;;;;26.50;99.90;;;;;;10535103;28;20018;-66
2021/06/04 10:59:58;;;;;;;;;;;26.70;99.90;;;;;;10472742;28;20015;-66
2021/06/04 11:05:12;;;;;;;;;;;26.70;99.90;;;;;;10508271;28;20007;-67
2021/06/04 11:10:19;;;;;;;;;;;26.50;99.90;;;;;;10493984;28;19934;-67
2021/06/04 11:15:24;;;;;;;;;;;26.10;99.90;;;;;;10493941;28;20030;-67
2021/06/04 11:20:30;;;;;;;;;;;25.90;99.90;;;;;;10493587;28;19962;-67
2021/06/04 11:25:45;;;;;;;;;;;26.00;99.90;;;;;;10492230;28;19938;-67
2021/06/04 11:30:50;;;;;;;;;;;26.60;99.90;;;;;;10493174;28;20012;-67
2021/06/04 11:35:54;;;;;;;;;;;27.30;99.90;;;;;;10493004;28;19932;-67
2021/06/04 11:41:02;;;;;;;;;;;27.70;98.60;;;;;;10493072;28;20031;-67
2021/06/04 11:46:24;;;;;;;;;;;27.30;98.40;;;;;;10492786;28;20447;-67
2021/06/04 11:51:28;;;;;;;;;;;27.40;99.60;;;;;;10491872;28;19932;-67
2021/06/04 11:56:45;;;;;;;;;;;27.30;99.10;;;;;;10492484;28;20011;-67
2021/06/04 12:01:58;;;;;;;;;;;27.20;99.70;;;;;;10495669;28;20007;-67
2021/06/04 12:07:24;;;;;;;;;;;26.70;99.90;;;;;;10533331;28;20334;-67
2021/06/04 12:12:26;;;;;;;;;;;26.40;99.90;;;;;;10530639;28;20031;-67
2021/06/04 12:17:29;;;;;;;;;;;25.90;99.90;;;;;;10530274;28;19977;-67
2021/06/04 12:22:43;;;;;;;;;;;25.60;99.90;;;;;;10528247;28;19931;-67
2021/06/04 12:27:57;;;;;;;;;;;25.50;99.90;;;;;;10489935;28;20019;-67
2021/06/04 12:33:00;;;;;;;;;;;25.40;99.90;;;;;;10489015;28;20326;-67
2021/06/04 12:38:22;;;;;;;;;;;25.50;99.90;;;;;;10490047;28;19931;-67
2021/06/04 12:43:26;;;;;;;;;;;25.80;99.90;;;;;;10490141;28;19924;-67
2021/06/04 12:48:28;;;;;;;;;;;25.80;99.90;;;;;;10508251;28;19924;-67
2021/06/04 12:53:45;;;;;;;;;;;25.90;99.90;;;;;;10531581;28;19930;-67
2021/06/04 12:58:49;;;;;;;;;;;26.00;99.90;;;;;;10529555;28;20368;-67
2021/06/04 13:04:01;;;;;;;;;;;26.10;99.70;;;;;;10509270;28;19929;-66
2021/06/04 13:09:03;;;;;;;;;;;26.30;97.70;;;;;;10489458;28;20022;-67
2021/06/04 13:14:17;;;;;;;;;;;26.40;98.70;;;;;;10518973;28;20031;-67
2021/06/04 13:19:23;;;;;;;;;;;26.70;98.30;;;;;;10530101;28;19924;-67
2021/06/04 13:24:33;;;;;;;;;;;26.80;97.90;;;;;;10530723;28;20021;-67
2021/06/04 13:29:37;;;;;;;;;;;27.00;97.90;;;;;;10531025;28;19946;-67
2021/06/04 13:34:46;;;;;;;;;;;27.10;98.10;;;;;;10530476;28;20024;-67
2021/06/04 13:39:48;;;;;;;;;;;27.10;99.00;;;;;;10530133;28;19929;-67
2021/06/04 13:44:50;;;;;;;;;;;27.00;99.30;;;;;;10490819;28;19924;-67
2021/06/04 13:49:52;;;;;;;;;;;26.60;99.20;;;;;;10517978;28;19928;-67
2021/06/04 13:54:57;;;;;;;;;;;26.20;99.50;;;;;;10530222;28;20003;-67
2021/06/04 14:00:14;;;;;;;;;;;25.80;99.90;;;;;;10529809;28;20447;-67
2021/06/04 14:05:25;;;;;;;;;;;25.60;99.90;;;;;;10496235;28;20007;-67
2021/06/04 14:10:31;;;;;;;;;;;25.50;99.90;;;;;;10494152;28;20008;-67
2021/06/04 14:15:42;;;;;;;;;;;25.30;99.90;;;;;;10495982;28;19929;-67
2021/06/04 14:20:44;;;;;;;;;;;25.30;99.90;;;;;;10496900;28;19935;-67
2021/06/04 14:25:45;;;;;;;;;;;25.30;99.90;;;;;;10495898;28;20003;-67
2021/06/04 14:30:51;;;;;;;;;;;25.30;99.90;;;;;;10495815;28;20018;-67
2021/06/04 14:36:05;;;;;;;;;;;25.00;99.90;;;;;;10495235;28;19932;-67
2021/06/04 14:41:12;;;;;;;;;;;24.80;99.90;;;;;;10495233;28;20012;-67
2021/06/04 14:46:19;;;;;;;;;;;24.70;99.90;;;;;;10496304;28;20392;-67
2021/06/04 14:51:21;;;;;;;;;;;24.70;99.90;;;;;;10536364;28;20007;-67
2021/06/04 14:56:23;;;;;;;;;;;24.60;99.90;;;;;;10536502;28;19990;-67
2021/06/04 15:01:25;;;;;;;;;;;24.50;99.90;;;;;;10535358;28;19967;-67
2021/06/04 15:06:26;;;;;;;;;;;24.30;99.90;;;;;;10519512;28;20014;-67
2021/06/04 15:11:28;;;;;;;;;;;23.90;99.90;;;;;;10495571;28;19935;-67
2021/06/04 15:16:30;;;;;;;;;;;23.60;99.90;;;;;;10495687;28;19929;-67
2021/06/04 15:21:33;;;;;;;;;;;23.80;99.90;;;;;;10534882;28;19927;-67
2021/06/04 15:26:36;;;;;;;;;;;23.90;99.90;;;;;;10535132;28;20465;-68
2021/06/04 15:31:38;;;;;;;;;;;23.70;99.90;;;;;;10533299;28;20043;-67
2021/06/04 15:36:40;;;;;;;;;;;23.30;99.90;;;;;;10534654;28;19924;-67
2021/06/04 15:41:44;;;;;;;;;;;23.10;99.90;;;;;;10533045;28;20460;-67
2021/06/04 15:46:47;;;;;;;;;;;23.10;99.90;;;;;;10531450;28;20292;-67
2021/06/04 15:51:49;;;;;;;;;;;22.40;99.90;;;;;;10492327;28;20384;-67
2021/06/04 15:56:51;;;;;;;;;;;21.90;99.90;;;;;;10501129;28;19925;-67
2021/06/04 16:01:52;;;;;;;;;;;21.00;99.90;;;;;;10486673;28;19935;-67
2021/06/04 16:06:55;;;;;;;;;;;20.40;99.90;;;;;;10520408;28;19969;-66
2021/06/04 16:12:05;;;;;;;;;;;19.90;99.90;;;;;;10502349;28;19931;-66
2021/06/04 16:17:07;;;;;;;;;;;19.80;99.90;;;;;;10509224;28;19924;-67
2021/06/04 16:22:11;;;;;;;;;;;19.90;99.90;;;;;;10525444;28;19946;-66
2021/06/04 16:27:14;;;;;;;;;;;19.90;99.90;;;;;;10529082;28;19975;-67
2021/06/04 16:32:15;;;;;;;;;;;20.00;99.90;;;;;;10487317;28;20347;-67
2021/06/04 16:37:17;;;;;;;;;;;20.10;99.90;;;;;;10489059;28;19924;-67
2021/06/04 16:42:19;;;;;;;;;;;20.00;99.90;;;;;;10488081;28;20374;-67
2021/06/04 16:47:22;;;;;;;;;;;19.70;99.90;;;;;;10527191;28;19931;-66
2021/06/04 16:52:24;;;;;;;;;;;19.30;99.90;;;;;;10494365;28;19939;-66
2021/06/04 16:57:26;;;;;;;;;;;19.10;99.90;;;;;;10488320;28;20086;-66
2021/06/04 17:02:28;;;;;;;;;;;19.30;99.90;;;;;;10495808;28;19924;-67
2021/06/04 17:07:30;;;;;;;;;;;19.30;99.90;;;;;;10529860;28;19938;-66
2021/06/04 17:12:32;;;;;;;;;;;19.10;99.90;;;;;;10511667;28;20428;-66
2021/06/04 17:17:34;;;;;;;;;;;19.00;99.90;;;;;;10529675;28;19931;-66
2021/06/04 17:22:37;;;;;;;;;;;19.20;99.90;;;;;;10528042;28;19993;-67
2021/06/04 17:27:38;;;;;;;;;;;19.40;99.90;;;;;;10526695;28;20307;-67
2021/06/04 17:32:41;;;;;;;;;;;19.60;99.90;;;;;;10528745;28;20335;-67
2021/06/04 17:37:54;;;;;;;;;;;19.60;99.90;;;;;;10528877;28;20932;-67
2021/06/04 17:42:57;;;;;;;;;;;19.40;99.90;;;;;;10528028;28;19924;-67
2021/06/04 17:48:00;;;;;;;;;;;19.20;99.90;;;;;;10529882;28;19924;-67
2021/06/04 17:53:02;;;;;;;;;;;19.40;99.90;;;;;;10488442;28;20398;-67
2021/06/04 17:58:05;;;;;;;;;;;19.80;99.90;;;;;;10487764;28;20012;-67
2021/06/04 18:03:07;;;;;;;;;;;20.00;99.90;;;;;;10501679;28;20011;-67
2021/06/04 18:08:10;;;;;;;;;;;19.90;99.90;;;;;;10528488;28;20379;-66
2021/06/04 18:13:13;;;;;;;;;;;19.70;99.90;;;;;;10529857;28;19982;-67
2021/06/04 18:18:16;;;;;;;;;;;19.50;99.90;;;;;;10528589;28;19971;-67
2021/06/04 18:23:21;;;;;;;;;;;19.30;99.90;;;;;;10528864;28;19931;-67
2021/06/04 18:28:23;;;;;;;;;;;19.40;99.90;;;;;;10498694;28;20153;-67
2021/06/04 18:33:25;;;;;;;;;;;19.50;99.90;;;;;;10486998;28;20443;-67
2021/06/04 18:38:27;;;;;;;;;;;19.60;99.90;;;;;;10487830;28;20011;-67
2021/06/04 18:43:30;;;;;;;;;;;19.60;99.90;;;;;;10486840;28;19925;-66
2021/06/04 18:48:33;;;;;;;;;;;19.50;99.90;;;;;;10504646;28;19932;-67
2021/06/04 18:53:35;;;;;;;;;;;19.30;99.90;;;;;;10528658;28;20015;-67
2021/06/04 18:58:37;;;;;;;;;;;19.10;99.90;;;;;;10536427;28;20026;-67
2021/06/04 19:03:41;;;;;;;;;;;19.00;99.90;;;;;;10515024;28;20049;-67
2021/06/04 19:08:43;;;;;;;;;;;19.00;99.90;;;;;;10494323;28;20011;-67
2021/06/04 19:13:44;;;;;;;;;;;19.00;99.90;;;;;;10494754;28;20413;-67
2021/06/04 19:18:46;;;;;;;;;;;19.00;99.90;;;;;;10515867;28;19970;-67
2021/06/04 19:23:48;;;;;;;;;;;19.00;99.90;;;;;;10535307;28;19931;-67
2021/06/04 19:28:50;;;;;;;;;;;18.90;99.90;;;;;;10535188;28;20011;-67
2021/06/04 19:33:52;;;;;;;;;;;18.90;99.90;;;;;;10534714;28;20019;-66
2021/06/04 19:38:56;;;;;;;;;;;19.00;99.90;;;;;;10534855;28;20018;-67
2021/06/04 19:43:59;;;;;;;;;;;19.10;99.90;;;;;;10534499;28;20452;-67
2021/06/04 19:49:00;;;;;;;;;;;19.00;99.90;;;;;;10533694;28;20012;-67
2021/06/04 19:54:02;;;;;;;;;;;18.90;99.90;;;;;;10534298;28;20011;-67
2021/06/04 19:59:05;;;;;;;;;;;18.90;99.90;;;;;;10533858;28;20321;-66
2021/06/04 20:04:08;;;;;;;;;;;18.80;99.90;;;;;;10510017;28;19967;-66
2021/06/04 20:09:10;;;;;;;;;;;18.60;99.90;;;;;;10491619;28;20353;-66
2021/06/04 20:14:13;;;;;;;;;;;18.60;99.90;;;;;;10491505;28;20007;-66
2021/06/04 20:19:16;;;;;;;;;;;18.70;99.90;;;;;;10492091;28;20320;-66
2021/06/04 20:24:17;;;;;;;;;;;18.60;99.90;;;;;;10494170;28;19924;-66
2021/06/04 20:29:19;;;;;;;;;;;18.60;99.90;;;;;;10532605;28;20431;-66
2021/06/04 20:34:21;;;;;;;;;;;18.60;99.90;;;;;;10515141;28;19924;-67
2021/06/04 20:39:24;;;;;;;;;;;18.60;99.90;;;;;;10490677;28;20066;-66
2021/06/04 20:44:26;;;;;;;;;;;18.40;99.90;;;;;;10491091;28;19925;-66
2021/06/04 20:49:28;;;;;;;;;;;18.10;99.90;;;;;;10486247;28;19979;-66
2021/06/04 20:54:30;;;;;;;;;;;18.20;99.90;;;;;;10492160;28;19999;-66
2021/06/04 20:59:32;;;;;;;;;;;18.20;99.90;;;;;;10530609;28;20031;-66
2021/06/04 21:04:39;;;;;;;;;;;18.00;99.90;;;;;;10513418;28;20454;-59
2021/06/04 21:09:41;;;;;;;;;;;18.20;99.90;;;;;;10517851;28;20019;-59
2021/06/04 21:14:44;;;;;;;;;;;18.20;99.90;;;;;;10499517;28;20003;-59
2021/06/04 21:19:45;;;;;;;;;;;17.90;99.90;;;;;;10492625;28;19925;-59
2021/06/04 21:24:47;;;;;;;;;;;17.60;99.90;;;;;;10515106;28;20015;-59
2021/06/04 21:29:49;;;;;;;;;;;17.40;99.90;;;;;;10506723;28;19925;-59
2021/06/04 21:34:51;;;;;;;;;;;17.30;99.90;;;;;;10519548;28;20011;-59
2021/06/04 21:39:53;;;;;;;;;;;17.20;99.90;;;;;;10527423;28;20018;-59
2021/06/04 21:44:55;;;;;;;;;;;16.90;99.90;;;;;;10515821;28;20277;-60
2021/06/04 21:49:57;;;;;;;;;;;16.90;99.90;;;;;;10489104;28;19932;-59
2021/06/04 21:54:59;;;;;;;;;;;16.70;99.90;;;;;;10490261;28;19925;-59
2021/06/04 22:00:01;;;;;;;;;;;16.60;99.90;;;;;;10516520;28;20348;-60
2021/06/04 22:05:04;;;;;;;;;;;16.70;99.90;;;;;;10505020;28;19975;-59
2021/06/04 22:10:06;;;;;;;;;;;16.80;99.90;;;;;;10516681;28;20306;-59
2021/06/04 22:15:11;;;;;;;;;;;16.90;99.90;;;;;;10501663;28;19934;-58
2021/06/04 22:20:14;;;;;;;;;;;17.00;99.90;;;;;;10526306;28;20007;-59
2021/06/04 22:25:17;;;;;;;;;;;17.00;99.90;;;;;;10501421;28;20036;-60
2021/06/04 22:30:19;;;;;;;;;;;17.10;99.90;;;;;;10503780;28;19924;-60
2021/06/04 22:35:22;;;;;;;;;;;17.10;99.90;;;;;;10499531;28;19925;-60
2021/06/04 22:40:26;;;;;;;;;;;17.10;99.90;;;;;;10494038;28;19924;-59
2021/06/04 22:45:29;;;;;;;;;;;17.00;99.90;;;;;;10517196;28;20415;-59
2021/06/04 22:50:32;;;;;;;;;;;17.10;99.90;;;;;;10528181;28;20044;-59
2021/06/04 22:55:36;;;;;;;;;;;17.10;99.90;;;;;;10533132;28;20011;-59
2021/06/04 23:00:42;;;;;;;;;;;17.00;99.90;;;;;;10516198;28;19935;-58
2021/06/04 23:05:44;;;;;;;;;;;17.10;99.90;;;;;;10515003;28;19990;-59
2021/06/04 23:10:46;;;;;;;;;;;17.10;99.90;;;;;;10503657;28;20273;-59
2021/06/04 23:15:49;;;;;;;;;;;17.10;99.90;;;;;;10516824;28;20070;-60
2021/06/04 23:20:51;;;;;;;;;;;17.00;99.90;;;;;;10519923;28;19978;-59
2021/06/04 23:25:53;;;;;;;;;;;17.00;99.90;;;;;;10533337;28;19928;-59
2021/06/04 23:30:55;;;;;;;;;;;17.00;99.90;;;;;;10533159;28;20018;-59
2021/06/04 23:35:57;;;;;;;;;;;17.00;99.90;;;;;;10493235;28;20352;-60
2021/06/04 23:40:59;;;;;;;;;;;17.00;99.90;;;;;;10494375;28;20492;-59
2021/06/04 23:46:00;;;;;;;;;;;17.00;99.90;;;;;;10503080;28;20383;-60
2021/06/04 23:51:02;;;;;;;;;;;17.00;99.90;;;;;;10532387;28;19978;-59
2021/06/04 23:56:05;;;;;;;;;;;16.90;99.90;;;;;;10532200;28;20283;-59
